Nederland, Colorado
Current Conditions -  °F | °C
As of 3:35 PM on Monday 22 Dec 2014 (Local Time) from KBDU Reporting Station
Light Snow Light Snow  
Wind Chill: 24°   Ceiling: 1800
Heat Index: 32°   Visibility: 4mi
Dew Point: 30°   Wind: 10mph
Humidity: 93%   Direction: 340°NNW
Pressure: 29.72"   Gusts: NA
Location:  39.96°N, 105.51°W
Report Text: KBDU 222235Z AUTO 34009KT 4SM -SN SCT008 OVC018 00/M01 A2972 RMK AO2
Loading
Personal Weather Stations






























Interactive Weather Map New forecast layout! Learn more

10-Day Weather Forecast

Advertisements
Track Severe Weather on mobile